sensor_id;sensor_type;location;lat;lon;timestamp;P1;durP1;ratioP1;P2;durP2;ratioP2
23658;SDS011;12006;42.666;23.326;2022-12-13T00:00:09;4.23;;;3.07;;
23658;SDS011;12006;42.666;23.326;2022-12-13T00:03:37;9.17;;;6.60;;
23658;SDS011;12006;42.666;23.326;2022-12-13T00:07:01;9.57;;;6.03;;
23658;SDS011;12006;42.666;23.326;2022-12-13T00:10:25;9.50;;;7.07;;
23658;SDS011;12006;42.666;23.326;2022-12-13T00:13:49;8.77;;;6.37;;
23658;SDS011;12006;42.666;23.326;2022-12-13T00:17:13;9.47;;;6.37;;
23658;SDS011;12006;42.666;23.326;2022-12-13T00:20:38;10.23;;;6.57;;
23658;SDS011;12006;42.666;23.326;2022-12-13T00:24:04;9.03;;;6.37;;
23658;SDS011;12006;42.666;23.326;2022-12-13T00:27:28;8.90;;;6.60;;
23658;SDS011;12006;42.666;23.326;2022-12-13T00:30:55;8.33;;;6.57;;
23658;SDS011;12006;42.666;23.326;2022-12-13T00:34:19;7.50;;;5.43;;
23658;SDS011;12006;42.666;23.326;2022-12-13T00:37:43;6.57;;;4.67;;
23658;SDS011;12006;42.666;23.326;2022-12-13T00:44:37;8.97;;;6.43;;
23658;SDS011;12006;42.666;23.326;2022-12-13T00:48:02;7.30;;;5.03;;
23658;SDS011;12006;42.666;23.326;2022-12-13T00:51:27;8.83;;;6.07;;
23658;SDS011;12006;42.666;23.326;2022-12-13T00:54:51;9.53;;;5.83;;
23658;SDS011;12006;42.666;23.326;2022-12-13T00:58:15;8.83;;;7.00;;
23658;SDS011;12006;42.666;23.326;2022-12-13T01:01:39;5.47;;;3.80;;
23658;SDS011;12006;42.666;23.326;2022-12-13T01:05:04;5.37;;;4.20;;
23658;SDS011;12006;42.666;23.326;2022-12-13T01:08:38;7.63;;;5.77;;
23658;SDS011;12006;42.666;23.326;2022-12-13T01:12:04;7.33;;;5.87;;
23658;SDS011;12006;42.666;23.326;2022-12-13T01:15:29;6.67;;;4.73;;
23658;SDS011;12006;42.666;23.326;2022-12-13T01:18:53;6.70;;;4.07;;
23658;SDS011;12006;42.666;23.326;2022-12-13T01:22:17;7.97;;;5.13;;
23658;SDS011;12006;42.666;23.326;2022-12-13T01:25:41;5.17;;;3.97;;
23658;SDS011;12006;42.666;23.326;2022-12-13T01:29:05;6.87;;;4.70;;
23658;SDS011;12006;42.666;23.326;2022-12-13T01:31:31;7.63;;;5.63;;
23658;SDS011;12006;42.666;23.326;2022-12-13T01:34:07;8.40;;;5.80;;
23658;SDS011;12006;42.666;23.326;2022-12-13T01:36:39;8.73;;;5.67;;
23658;SDS011;12006;42.666;23.326;2022-12-13T01:39:10;8.20;;;5.80;;
23658;SDS011;12006;42.666;23.326;2022-12-13T01:41:39;7.17;;;5.33;;
23658;SDS011;12006;42.666;23.326;2022-12-13T01:44:52;8.67;;;6.80;;
23658;SDS011;12006;42.666;23.326;2022-12-13T01:47:10;10.40;;;6.10;;
23658;SDS011;12006;42.666;23.326;2022-12-13T01:49:40;8.53;;;6.33;;
23658;SDS011;12006;42.666;23.326;2022-12-13T01:52:56;8.17;;;5.97;;
23658;SDS011;12006;42.666;23.326;2022-12-13T01:55:37;10.33;;;7.50;;
23658;SDS011;12006;42.666;23.326;2022-12-13T01:58:07;11.73;;;8.30;;
23658;SDS011;12006;42.666;23.326;2022-12-13T02:01:26;10.27;;;7.20;;
23658;SDS011;12006;42.666;23.326;2022-12-13T02:08:31;11.00;;;7.03;;
23658;SDS011;12006;42.666;23.326;2022-12-13T02:11:52;10.97;;;7.47;;
23658;SDS011;12006;42.666;23.326;2022-12-13T02:15:16;10.97;;;7.43;;
23658;SDS011;12006;42.666;23.326;2022-12-13T02:36:43;11.23;;;7.70;;
23658;SDS011;12006;42.666;23.326;2022-12-13T02:47:22;12.27;;;7.60;;
23658;SDS011;12006;42.666;23.326;2022-12-13T02:50:49;9.40;;;6.93;;
23658;SDS011;12006;42.666;23.326;2022-12-13T02:54:15;11.37;;;7.53;;
23658;SDS011;12006;42.666;23.326;2022-12-13T02:57:42;9.87;;;7.13;;
23658;SDS011;12006;42.666;23.326;2022-12-13T03:01:17;12.13;;;8.20;;
23658;SDS011;12006;42.666;23.326;2022-12-13T03:19:50;11.13;;;8.30;;
23658;SDS011;12006;42.666;23.326;2022-12-13T03:23:22;9.93;;;6.97;;
23658;SDS011;12006;42.666;23.326;2022-12-13T03:26:47;11.40;;;7.17;;
23658;SDS011;12006;42.666;23.326;2022-12-13T03:30:12;4.63;;;3.27;;
23658;SDS011;12006;42.666;23.326;2022-12-13T03:33:36;8.17;;;5.03;;
23658;SDS011;12006;42.666;23.326;2022-12-13T03:37:00;7.07;;;5.23;;
23658;SDS011;12006;42.666;23.326;2022-12-13T03:40:26;5.17;;;3.47;;
23658;SDS011;12006;42.666;23.326;2022-12-13T03:44:05;5.37;;;2.47;;
23658;SDS011;12006;42.666;23.326;2022-12-13T03:47:30;8.20;;;5.07;;
23658;SDS011;12006;42.666;23.326;2022-12-13T03:50:54;6.77;;;4.83;;
23658;SDS011;12006;42.666;23.326;2022-12-13T03:54:18;9.03;;;6.37;;
23658;SDS011;12006;42.666;23.326;2022-12-13T03:57:42;9.40;;;6.30;;
23658;SDS011;12006;42.666;23.326;2022-12-13T04:01:10;10.30;;;7.10;;
23658;SDS011;12006;42.666;23.326;2022-12-13T04:04:34;11.43;;;7.77;;
23658;SDS011;12006;42.666;23.326;2022-12-13T04:07:58;8.87;;;6.80;;
23658;SDS011;12006;42.666;23.326;2022-12-13T04:11:22;11.87;;;7.87;;
23658;SDS011;12006;42.666;23.326;2022-12-13T04:15:25;11.07;;;7.17;;
23658;SDS011;12006;42.666;23.326;2022-12-13T04:18:49;14.50;;;9.20;;
23658;SDS011;12006;42.666;23.326;2022-12-13T04:22:12;10.90;;;8.33;;
23658;SDS011;12006;42.666;23.326;2022-12-13T04:25:37;13.33;;;8.47;;
23658;SDS011;12006;42.666;23.326;2022-12-13T04:29:01;11.83;;;8.60;;
23658;SDS011;12006;42.666;23.326;2022-12-13T04:32:25;13.00;;;8.40;;
23658;SDS011;12006;42.666;23.326;2022-12-13T04:35:49;12.87;;;8.47;;
23658;SDS011;12006;42.666;23.326;2022-12-13T04:39:13;10.00;;;7.57;;
23658;SDS011;12006;42.666;23.326;2022-12-13T04:42:38;13.50;;;8.83;;
23658;SDS011;12006;42.666;23.326;2022-12-13T04:46:02;12.37;;;7.70;;
23658;SDS011;12006;42.666;23.326;2022-12-13T04:49:27;11.50;;;8.13;;
23658;SDS011;12006;42.666;23.326;2022-12-13T04:52:51;13.40;;;8.90;;
23658;SDS011;12006;42.666;23.326;2022-12-13T04:56:14;14.27;;;9.10;;
23658;SDS011;12006;42.666;23.326;2022-12-13T04:59:39;11.70;;;7.90;;
23658;SDS011;12006;42.666;23.326;2022-12-13T05:03:04;13.97;;;9.10;;
23658;SDS011;12006;42.666;23.326;2022-12-13T05:06:28;11.10;;;7.63;;
23658;SDS011;12006;42.666;23.326;2022-12-13T05:09:52;13.50;;;8.97;;
23658;SDS011;12006;42.666;23.326;2022-12-13T05:13:18;10.67;;;6.73;;
23658;SDS011;12006;42.666;23.326;2022-12-13T05:16:42;10.70;;;6.77;;
23658;SDS011;12006;42.666;23.326;2022-12-13T05:20:06;14.47;;;8.67;;
23658;SDS011;12006;42.666;23.326;2022-12-13T05:23:31;6.63;;;4.87;;
23658;SDS011;12006;42.666;23.326;2022-12-13T05:26:56;9.57;;;7.17;;
23658;SDS011;12006;42.666;23.326;2022-12-13T05:30:21;11.63;;;7.87;;
23658;SDS011;12006;42.666;23.326;2022-12-13T05:33:45;9.27;;;5.80;;
23658;SDS011;12006;42.666;23.326;2022-12-13T05:37:09;6.13;;;3.60;;
23658;SDS011;12006;42.666;23.326;2022-12-13T05:40:32;10.40;;;7.17;;
23658;SDS011;12006;42.666;23.326;2022-12-13T05:43:58;12.20;;;8.00;;
23658;SDS011;12006;42.666;23.326;2022-12-13T05:47:22;8.20;;;5.33;;
23658;SDS011;12006;42.666;23.326;2022-12-13T05:50:46;11.13;;;8.47;;
23658;SDS011;12006;42.666;23.326;2022-12-13T05:54:10;13.30;;;8.80;;
23658;SDS011;12006;42.666;23.326;2022-12-13T05:57:35;10.17;;;6.27;;
23658;SDS011;12006;42.666;23.326;2022-12-13T06:01:10;11.50;;;7.93;;
23658;SDS011;12006;42.666;23.326;2022-12-13T06:04:34;11.20;;;7.97;;
23658;SDS011;12006;42.666;23.326;2022-12-13T06:07:58;17.70;;;10.33;;
23658;SDS011;12006;42.666;23.326;2022-12-13T06:11:23;12.60;;;8.17;;
23658;SDS011;12006;42.666;23.326;2022-12-13T06:14:47;12.07;;;8.20;;
23658;SDS011;12006;42.666;23.326;2022-12-13T06:18:11;14.93;;;9.47;;
23658;SDS011;12006;42.666;23.326;2022-12-13T06:21:34;11.50;;;7.37;;
23658;SDS011;12006;42.666;23.326;2022-12-13T06:24:58;13.40;;;9.07;;
23658;SDS011;12006;42.666;23.326;2022-12-13T06:28:22;12.47;;;8.43;;
23658;SDS011;12006;42.666;23.326;2022-12-13T06:31:50;16.77;;;10.57;;
23658;SDS011;12006;42.666;23.326;2022-12-13T06:35:14;12.77;;;8.13;;
23658;SDS011;12006;42.666;23.326;2022-12-13T06:38:38;14.33;;;10.93;;
23658;SDS011;12006;42.666;23.326;2022-12-13T06:42:03;15.87;;;9.83;;
23658;SDS011;12006;42.666;23.326;2022-12-13T06:45:28;13.00;;;9.43;;
23658;SDS011;12006;42.666;23.326;2022-12-13T06:48:52;11.93;;;9.27;;
23658;SDS011;12006;42.666;23.326;2022-12-13T06:52:16;15.30;;;10.37;;
23658;SDS011;12006;42.666;23.326;2022-12-13T06:55:40;13.60;;;9.37;;
23658;SDS011;12006;42.666;23.326;2022-12-13T06:59:04;14.47;;;10.23;;
23658;SDS011;12006;42.666;23.326;2022-12-13T07:02:29;19.73;;;12.97;;
23658;SDS011;12006;42.666;23.326;2022-12-13T07:05:53;17.13;;;10.57;;
23658;SDS011;12006;42.666;23.326;2022-12-13T07:09:17;14.43;;;10.70;;
23658;SDS011;12006;42.666;23.326;2022-12-13T07:12:41;13.47;;;9.47;;
23658;SDS011;12006;42.666;23.326;2022-12-13T07:16:05;14.20;;;9.60;;
23658;SDS011;12006;42.666;23.326;2022-12-13T07:19:30;15.03;;;9.53;;
23658;SDS011;12006;42.666;23.326;2022-12-13T07:22:54;14.27;;;8.77;;
23658;SDS011;12006;42.666;23.326;2022-12-13T07:26:18;12.00;;;8.30;;
23658;SDS011;12006;42.666;23.326;2022-12-13T07:29:42;13.63;;;9.47;;
23658;SDS011;12006;42.666;23.326;2022-12-13T07:33:06;13.87;;;9.33;;
23658;SDS011;12006;42.666;23.326;2022-12-13T07:36:30;15.10;;;9.80;;
23658;SDS011;12006;42.666;23.326;2022-12-13T07:39:54;14.47;;;10.03;;
23658;SDS011;12006;42.666;23.326;2022-12-13T07:43:20;15.17;;;10.17;;
23658;SDS011;12006;42.666;23.326;2022-12-13T07:46:44;13.87;;;8.47;;
23658;SDS011;12006;42.666;23.326;2022-12-13T07:50:08;15.57;;;10.07;;
23658;SDS011;12006;42.666;23.326;2022-12-13T07:53:37;13.70;;;9.47;;
23658;SDS011;12006;42.666;23.326;2022-12-13T07:57:01;14.50;;;9.80;;
23658;SDS011;12006;42.666;23.326;2022-12-13T08:00:29;13.80;;;8.57;;
23658;SDS011;12006;42.666;23.326;2022-12-13T08:03:55;10.10;;;6.27;;
23658;SDS011;12006;42.666;23.326;2022-12-13T08:07:18;13.23;;;8.13;;
23658;SDS011;12006;42.666;23.326;2022-12-13T08:10:42;13.13;;;9.13;;
23658;SDS011;12006;42.666;23.326;2022-12-13T08:14:07;11.33;;;8.00;;
23658;SDS011;12006;42.666;23.326;2022-12-13T08:17:31;15.97;;;9.23;;
23658;SDS011;12006;42.666;23.326;2022-12-13T08:20:58;12.90;;;8.83;;
23658;SDS011;12006;42.666;23.326;2022-12-13T08:24:23;14.93;;;11.00;;
23658;SDS011;12006;42.666;23.326;2022-12-13T08:27:47;12.90;;;9.07;;
23658;SDS011;12006;42.666;23.326;2022-12-13T08:31:11;13.43;;;9.33;;
23658;SDS011;12006;42.666;23.326;2022-12-13T08:34:36;13.53;;;9.10;;
23658;SDS011;12006;42.666;23.326;2022-12-13T08:38:00;12.90;;;9.73;;
23658;SDS011;12006;42.666;23.326;2022-12-13T08:41:26;15.67;;;10.37;;
23658;SDS011;12006;42.666;23.326;2022-12-13T08:44:51;13.37;;;8.53;;
23658;SDS011;12006;42.666;23.326;2022-12-13T08:48:15;9.07;;;6.30;;
23658;SDS011;12006;42.666;23.326;2022-12-13T08:51:40;11.07;;;6.93;;
23658;SDS011;12006;42.666;23.326;2022-12-13T08:55:04;5.43;;;3.70;;
23658;SDS011;12006;42.666;23.326;2022-12-13T08:58:29;6.33;;;3.67;;
23658;SDS011;12006;42.666;23.326;2022-12-13T09:01:53;7.67;;;5.33;;
23658;SDS011;12006;42.666;23.326;2022-12-13T09:05:21;7.10;;;5.03;;
23658;SDS011;12006;42.666;23.326;2022-12-13T09:08:45;6.53;;;4.70;;
23658;SDS011;12006;42.666;23.326;2022-12-13T09:12:09;5.70;;;3.33;;
23658;SDS011;12006;42.666;23.326;2022-12-13T09:15:32;6.93;;;3.70;;
23658;SDS011;12006;42.666;23.326;2022-12-13T09:19:00;14.77;;;8.87;;
23658;SDS011;12006;42.666;23.326;2022-12-13T09:22:24;11.77;;;7.80;;
23658;SDS011;12006;42.666;23.326;2022-12-13T09:25:57;13.03;;;8.70;;
23658;SDS011;12006;42.666;23.326;2022-12-13T09:29:21;4.97;;;3.53;;
23658;SDS011;12006;42.666;23.326;2022-12-13T09:32:45;12.87;;;8.50;;
23658;SDS011;12006;42.666;23.326;2022-12-13T09:36:10;14.23;;;10.03;;
23658;SDS011;12006;42.666;23.326;2022-12-13T09:39:37;13.50;;;8.77;;
23658;SDS011;12006;42.666;23.326;2022-12-13T09:43:02;11.37;;;8.20;;
23658;SDS011;12006;42.666;23.326;2022-12-13T09:49:57;11.67;;;6.73;;
23658;SDS011;12006;42.666;23.326;2022-12-13T09:53:21;9.53;;;7.63;;
23658;SDS011;12006;42.666;23.326;2022-12-13T09:56:47;11.20;;;8.07;;
23658;SDS011;12006;42.666;23.326;2022-12-13T10:00:17;10.10;;;7.90;;
23658;SDS011;12006;42.666;23.326;2022-12-13T10:03:43;14.30;;;10.03;;
23658;SDS011;12006;42.666;23.326;2022-12-13T10:07:11;10.47;;;8.17;;
23658;SDS011;12006;42.666;23.326;2022-12-13T10:10:44;11.60;;;7.43;;
23658;SDS011;12006;42.666;23.326;2022-12-13T10:14:26;11.33;;;6.80;;
23658;SDS011;12006;42.666;23.326;2022-12-13T10:17:53;12.60;;;7.73;;
23658;SDS011;12006;42.666;23.326;2022-12-13T10:28:18;12.30;;;9.00;;
23658;SDS011;12006;42.666;23.326;2022-12-13T10:31:48;14.67;;;9.77;;
23658;SDS011;12006;42.666;23.326;2022-12-13T10:35:32;14.93;;;10.53;;
23658;SDS011;12006;42.666;23.326;2022-12-13T10:39:02;10.50;;;8.13;;
23658;SDS011;12006;42.666;23.326;2022-12-13T10:42:27;11.20;;;8.30;;
23658;SDS011;12006;42.666;23.326;2022-12-13T10:49:31;12.93;;;8.43;;
23658;SDS011;12006;42.666;23.326;2022-12-13T10:52:57;12.37;;;8.77;;
23658;SDS011;12006;42.666;23.326;2022-12-13T10:56:34;10.27;;;7.40;;
23658;SDS011;12006;42.666;23.326;2022-12-13T10:59:59;11.67;;;8.67;;
23658;SDS011;12006;42.666;23.326;2022-12-13T11:03:32;11.97;;;8.30;;
23658;SDS011;12006;42.666;23.326;2022-12-13T11:06:59;5.70;;;3.57;;
23658;SDS011;12006;42.666;23.326;2022-12-13T11:11:00;9.20;;;7.17;;
23658;SDS011;12006;42.666;23.326;2022-12-13T11:14:32;9.40;;;7.37;;
23658;SDS011;12006;42.666;23.326;2022-12-13T11:18:03;12.13;;;8.40;;
23658;SDS011;12006;42.666;23.326;2022-12-13T11:21:31;10.50;;;7.10;;
23658;SDS011;12006;42.666;23.326;2022-12-13T11:25:00;6.37;;;5.33;;
23658;SDS011;12006;42.666;23.326;2022-12-13T11:32:12;10.57;;;7.57;;
23658;SDS011;12006;42.666;23.326;2022-12-13T11:36:13;12.13;;;7.47;;
23658;SDS011;12006;42.666;23.326;2022-12-13T11:39:42;11.77;;;8.17;;
23658;SDS011;12006;42.666;23.326;2022-12-13T11:46:45;9.70;;;6.47;;
23658;SDS011;12006;42.666;23.326;2022-12-13T11:50:17;12.37;;;8.00;;
23658;SDS011;12006;42.666;23.326;2022-12-13T11:53:57;10.47;;;7.63;;
23658;SDS011;12006;42.666;23.326;2022-12-13T11:57:43;10.17;;;7.43;;
23658;SDS011;12006;42.666;23.326;2022-12-13T12:05:02;12.87;;;7.80;;
23658;SDS011;12006;42.666;23.326;2022-12-13T12:09:12;12.47;;;8.30;;
23658;SDS011;12006;42.666;23.326;2022-12-13T12:12:38;12.80;;;8.00;;
23658;SDS011;12006;42.666;23.326;2022-12-13T12:19:38;13.10;;;9.30;;
23658;SDS011;12006;42.666;23.326;2022-12-13T12:23:27;10.33;;;7.50;;
23658;SDS011;12006;42.666;23.326;2022-12-13T12:30:38;8.30;;;5.93;;
23658;SDS011;12006;42.666;23.326;2022-12-13T12:34:24;10.07;;;6.47;;
23658;SDS011;12006;42.666;23.326;2022-12-13T12:46:14;9.73;;;6.87;;
23658;SDS011;12006;42.666;23.326;2022-12-13T13:02:25;4.60;;;3.17;;
23658;SDS011;12006;42.666;23.326;2022-12-13T13:05:09;7.00;;;4.43;;
23658;SDS011;12006;42.666;23.326;2022-12-13T13:07:44;8.83;;;5.97;;
23658;SDS011;12006;42.666;23.326;2022-12-13T13:10:49;9.30;;;6.10;;
23658;SDS011;12006;42.666;23.326;2022-12-13T13:16:51;9.03;;;6.83;;
23658;SDS011;12006;42.666;23.326;2022-12-13T13:21:46;7.33;;;5.03;;
23658;SDS011;12006;42.666;23.326;2022-12-13T13:24:18;10.33;;;7.20;;
23658;SDS011;12006;42.666;23.326;2022-12-13T13:34:52;7.87;;;6.57;;
23658;SDS011;12006;42.666;23.326;2022-12-13T13:37:46;10.70;;;6.77;;
23658;SDS011;12006;42.666;23.326;2022-12-13T13:41:37;9.00;;;5.73;;
23658;SDS011;12006;42.666;23.326;2022-12-13T13:47:42;15.87;;;9.47;;
23658;SDS011;12006;42.666;23.326;2022-12-13T13:50:44;14.33;;;8.67;;
23658;SDS011;12006;42.666;23.326;2022-12-13T14:14:10;12.83;;;8.57;;
23658;SDS011;12006;42.666;23.326;2022-12-13T14:21:44;13.77;;;9.40;;
23658;SDS011;12006;42.666;23.326;2022-12-13T14:25:18;12.53;;;8.77;;
23658;SDS011;12006;42.666;23.326;2022-12-13T14:28:59;13.27;;;9.53;;
23658;SDS011;12006;42.666;23.326;2022-12-13T14:32:25;11.77;;;8.70;;
23658;SDS011;12006;42.666;23.326;2022-12-13T14:35:54;10.90;;;8.67;;
23658;SDS011;12006;42.666;23.326;2022-12-13T14:39:20;13.13;;;9.43;;
23658;SDS011;12006;42.666;23.326;2022-12-13T14:42:53;13.27;;;9.53;;
23658;SDS011;12006;42.666;23.326;2022-12-13T14:46:17;11.27;;;9.17;;
23658;SDS011;12006;42.666;23.326;2022-12-13T14:49:42;13.67;;;10.23;;
23658;SDS011;12006;42.666;23.326;2022-12-13T14:53:22;15.13;;;10.07;;
23658;SDS011;12006;42.666;23.326;2022-12-13T14:56:58;12.97;;;8.60;;
23658;SDS011;12006;42.666;23.326;2022-12-13T15:03:52;12.43;;;9.47;;
23658;SDS011;12006;42.666;23.326;2022-12-13T15:10:55;11.90;;;9.80;;
23658;SDS011;12006;42.666;23.326;2022-12-13T15:14:21;14.23;;;10.37;;
23658;SDS011;12006;42.666;23.326;2022-12-13T15:17:49;16.13;;;10.83;;
23658;SDS011;12006;42.666;23.326;2022-12-13T15:21:40;19.30;;;13.80;;
23658;SDS011;12006;42.666;23.326;2022-12-13T15:25:04;22.63;;;14.70;;
23658;SDS011;12006;42.666;23.326;2022-12-13T15:28:34;24.43;;;17.43;;
23658;SDS011;12006;42.666;23.326;2022-12-13T15:32:01;19.20;;;12.40;;
23658;SDS011;12006;42.666;23.326;2022-12-13T15:35:28;17.00;;;13.23;;
23658;SDS011;12006;42.666;23.326;2022-12-13T15:42:25;23.97;;;15.03;;
23658;SDS011;12006;42.666;23.326;2022-12-13T15:45:56;22.50;;;16.50;;
23658;SDS011;12006;42.666;23.326;2022-12-13T15:49:28;26.33;;;18.50;;
23658;SDS011;12006;42.666;23.326;2022-12-13T15:53:16;23.60;;;17.07;;
23658;SDS011;12006;42.666;23.326;2022-12-13T16:00:30;25.57;;;17.77;;
23658;SDS011;12006;42.666;23.326;2022-12-13T16:03:58;29.47;;;21.00;;
23658;SDS011;12006;42.666;23.326;2022-12-13T16:07:33;34.40;;;26.00;;
23658;SDS011;12006;42.666;23.326;2022-12-13T16:11:01;26.40;;;17.87;;
23658;SDS011;12006;42.666;23.326;2022-12-13T16:18:06;27.20;;;19.70;;
23658;SDS011;12006;42.666;23.326;2022-12-13T16:21:36;26.10;;;17.90;;
23658;SDS011;12006;42.666;23.326;2022-12-13T16:25:00;27.63;;;19.07;;
23658;SDS011;12006;42.666;23.326;2022-12-13T16:28:24;29.43;;;20.87;;
23658;SDS011;12006;42.666;23.326;2022-12-13T16:31:48;27.43;;;20.63;;
23658;SDS011;12006;42.666;23.326;2022-12-13T16:34:15;29.23;;;21.10;;
23658;SDS011;12006;42.666;23.326;2022-12-13T16:37:39;33.20;;;23.13;;
23658;SDS011;12006;42.666;23.326;2022-12-13T16:41:03;30.37;;;21.33;;
23658;SDS011;12006;42.666;23.326;2022-12-13T16:44:35;29.50;;;20.07;;
23658;SDS011;12006;42.666;23.326;2022-12-13T16:48:03;27.97;;;21.27;;
23658;SDS011;12006;42.666;23.326;2022-12-13T16:51:32;26.80;;;20.37;;
23658;SDS011;12006;42.666;23.326;2022-12-13T16:54:56;27.90;;;20.10;;
23658;SDS011;12006;42.666;23.326;2022-12-13T16:58:20;27.37;;;19.03;;
23658;SDS011;12006;42.666;23.326;2022-12-13T17:01:46;25.50;;;18.80;;
23658;SDS011;12006;42.666;23.326;2022-12-13T17:05:10;25.07;;;18.37;;
23658;SDS011;12006;42.666;23.326;2022-12-13T17:08:35;27.57;;;20.07;;
23658;SDS011;12006;42.666;23.326;2022-12-13T17:11:58;29.40;;;20.90;;
23658;SDS011;12006;42.666;23.326;2022-12-13T17:15:22;23.30;;;16.93;;
23658;SDS011;12006;42.666;23.326;2022-12-13T17:18:46;30.20;;;21.07;;
23658;SDS011;12006;42.666;23.326;2022-12-13T17:22:10;29.23;;;20.37;;
23658;SDS011;12006;42.666;23.326;2022-12-13T17:25:38;29.90;;;22.00;;
23658;SDS011;12006;42.666;23.326;2022-12-13T17:29:02;31.33;;;21.60;;
23658;SDS011;12006;42.666;23.326;2022-12-13T17:32:27;30.63;;;19.90;;
23658;SDS011;12006;42.666;23.326;2022-12-13T17:35:50;27.20;;;19.63;;
23658;SDS011;12006;42.666;23.326;2022-12-13T17:39:14;27.53;;;18.63;;
23658;SDS011;12006;42.666;23.326;2022-12-13T17:42:38;25.03;;;18.33;;
23658;SDS011;12006;42.666;23.326;2022-12-13T17:46:03;29.93;;;20.60;;
23658;SDS011;12006;42.666;23.326;2022-12-13T17:49:27;31.07;;;22.03;;
23658;SDS011;12006;42.666;23.326;2022-12-13T17:52:52;31.77;;;21.50;;
23658;SDS011;12006;42.666;23.326;2022-12-13T17:56:16;29.93;;;21.47;;
23658;SDS011;12006;42.666;23.326;2022-12-13T17:59:39;28.27;;;19.33;;
23658;SDS011;12006;42.666;23.326;2022-12-13T18:03:03;28.80;;;20.23;;
23658;SDS011;12006;42.666;23.326;2022-12-13T18:06:27;29.00;;;19.43;;
23658;SDS011;12006;42.666;23.326;2022-12-13T18:09:51;30.33;;;20.00;;
23658;SDS011;12006;42.666;23.326;2022-12-13T18:13:19;30.70;;;19.53;;
23658;SDS011;12006;42.666;23.326;2022-12-13T18:16:43;27.13;;;19.60;;
23658;SDS011;12006;42.666;23.326;2022-12-13T18:20:07;27.47;;;19.10;;
23658;SDS011;12006;42.666;23.326;2022-12-13T18:23:32;26.20;;;18.27;;
23658;SDS011;12006;42.666;23.326;2022-12-13T18:26:56;25.57;;;16.97;;
23658;SDS011;12006;42.666;23.326;2022-12-13T18:30:20;25.93;;;18.00;;
23658;SDS011;12006;42.666;23.326;2022-12-13T18:33:47;23.03;;;18.00;;
23658;SDS011;12006;42.666;23.326;2022-12-13T18:37:11;23.40;;;16.80;;
23658;SDS011;12006;42.666;23.326;2022-12-13T18:40:35;26.70;;;17.67;;
23658;SDS011;12006;42.666;23.326;2022-12-13T18:44:00;26.63;;;18.70;;
23658;SDS011;12006;42.666;23.326;2022-12-13T18:47:25;24.57;;;18.03;;
23658;SDS011;12006;42.666;23.326;2022-12-13T18:50:49;28.97;;;17.87;;
23658;SDS011;12006;42.666;23.326;2022-12-13T18:54:13;25.60;;;17.33;;
23658;SDS011;12006;42.666;23.326;2022-12-13T18:57:37;27.37;;;17.77;;
23658;SDS011;12006;42.666;23.326;2022-12-13T19:01:05;26.80;;;18.70;;
23658;SDS011;12006;42.666;23.326;2022-12-13T19:04:29;23.27;;;18.47;;
23658;SDS011;12006;42.666;23.326;2022-12-13T19:07:53;25.50;;;17.93;;
23658;SDS011;12006;42.666;23.326;2022-12-13T19:11:19;24.43;;;17.80;;
23658;SDS011;12006;42.666;23.326;2022-12-13T19:14:43;23.13;;;17.03;;
23658;SDS011;12006;42.666;23.326;2022-12-13T19:18:07;24.60;;;18.10;;
23658;SDS011;12006;42.666;23.326;2022-12-13T19:21:31;26.73;;;17.97;;
23658;SDS011;12006;42.666;23.326;2022-12-13T19:24:55;24.30;;;18.60;;
23658;SDS011;12006;42.666;23.326;2022-12-13T19:28:19;26.93;;;17.93;;
23658;SDS011;12006;42.666;23.326;2022-12-13T19:31:44;23.50;;;17.67;;
23658;SDS011;12006;42.666;23.326;2022-12-13T19:35:08;20.63;;;15.87;;
23658;SDS011;12006;42.666;23.326;2022-12-13T19:38:33;24.73;;;17.07;;
23658;SDS011;12006;42.666;23.326;2022-12-13T19:41:57;22.67;;;16.23;;
23658;SDS011;12006;42.666;23.326;2022-12-13T19:45:21;22.83;;;16.00;;
23658;SDS011;12006;42.666;23.326;2022-12-13T19:48:45;23.43;;;16.17;;
23658;SDS011;12006;42.666;23.326;2022-12-13T19:52:09;23.93;;;16.80;;
23658;SDS011;12006;42.666;23.326;2022-12-13T19:55:34;20.87;;;15.37;;
23658;SDS011;12006;42.666;23.326;2022-12-13T19:58:58;21.90;;;15.70;;
23658;SDS011;12006;42.666;23.326;2022-12-13T20:02:22;21.97;;;16.27;;
23658;SDS011;12006;42.666;23.326;2022-12-13T20:05:54;21.73;;;15.27;;
23658;SDS011;12006;42.666;23.326;2022-12-13T20:09:19;21.57;;;14.83;;
23658;SDS011;12006;42.666;23.326;2022-12-13T20:12:42;20.63;;;14.20;;
23658;SDS011;12006;42.666;23.326;2022-12-13T20:16:07;20.33;;;14.30;;
23658;SDS011;12006;42.666;23.326;2022-12-13T20:19:31;18.17;;;14.30;;
23658;SDS011;12006;42.666;23.326;2022-12-13T20:22:54;22.37;;;14.40;;
23658;SDS011;12006;42.666;23.326;2022-12-13T20:26:19;20.10;;;14.67;;
23658;SDS011;12006;42.666;23.326;2022-12-13T20:29:45;18.20;;;13.40;;
23658;SDS011;12006;42.666;23.326;2022-12-13T20:33:09;18.10;;;13.10;;
23658;SDS011;12006;42.666;23.326;2022-12-13T20:36:38;19.43;;;13.87;;
23658;SDS011;12006;42.666;23.326;2022-12-13T20:40:02;17.87;;;13.90;;
23658;SDS011;12006;42.666;23.326;2022-12-13T20:43:27;19.37;;;13.47;;
23658;SDS011;12006;42.666;23.326;2022-12-13T20:46:51;20.40;;;13.63;;
23658;SDS011;12006;42.666;23.326;2022-12-13T20:50:15;16.37;;;12.53;;
23658;SDS011;12006;42.666;23.326;2022-12-13T20:53:44;17.27;;;12.80;;
23658;SDS011;12006;42.666;23.326;2022-12-13T20:57:08;20.57;;;13.53;;
23658;SDS011;12006;42.666;23.326;2022-12-13T21:00:32;20.37;;;13.43;;
23658;SDS011;12006;42.666;23.326;2022-12-13T21:04:00;18.47;;;12.70;;
23658;SDS011;12006;42.666;23.326;2022-12-13T21:07:25;15.73;;;12.23;;
23658;SDS011;12006;42.666;23.326;2022-12-13T21:11:07;17.57;;;13.00;;
23658;SDS011;12006;42.666;23.326;2022-12-13T21:14:31;23.33;;;13.53;;
23658;SDS011;12006;42.666;23.326;2022-12-13T21:17:55;19.20;;;13.33;;
23658;SDS011;12006;42.666;23.326;2022-12-13T21:21:20;16.87;;;11.73;;
23658;SDS011;12006;42.666;23.326;2022-12-13T21:24:45;18.47;;;13.33;;
23658;SDS011;12006;42.666;23.326;2022-12-13T21:28:09;19.03;;;12.37;;
23658;SDS011;12006;42.666;23.326;2022-12-13T21:31:35;18.37;;;13.03;;
23658;SDS011;12006;42.666;23.326;2022-12-13T21:34:59;17.43;;;13.07;;
23658;SDS011;12006;42.666;23.326;2022-12-13T21:38:31;18.73;;;13.10;;
23658;SDS011;12006;42.666;23.326;2022-12-13T21:41:55;19.00;;;13.93;;
23658;SDS011;12006;42.666;23.326;2022-12-13T21:45:20;19.93;;;14.10;;
23658;SDS011;12006;42.666;23.326;2022-12-13T21:48:48;22.33;;;14.70;;
23658;SDS011;12006;42.666;23.326;2022-12-13T21:52:12;18.33;;;13.33;;
23658;SDS011;12006;42.666;23.326;2022-12-13T21:55:40;17.90;;;13.30;;
23658;SDS011;12006;42.666;23.326;2022-12-13T21:59:24;15.90;;;12.47;;
23658;SDS011;12006;42.666;23.326;2022-12-13T22:02:49;20.60;;;13.47;;
23658;SDS011;12006;42.666;23.326;2022-12-13T22:06:12;18.80;;;13.70;;
23658;SDS011;12006;42.666;23.326;2022-12-13T22:09:44;16.63;;;12.30;;
23658;SDS011;12006;42.666;23.326;2022-12-13T22:13:27;18.17;;;12.60;;
23658;SDS011;12006;42.666;23.326;2022-12-13T22:16:51;16.27;;;12.20;;
23658;SDS011;12006;42.666;23.326;2022-12-13T22:20:15;17.00;;;12.20;;
23658;SDS011;12006;42.666;23.326;2022-12-13T22:23:39;20.90;;;13.70;;
23658;SDS011;12006;42.666;23.326;2022-12-13T22:27:03;19.17;;;12.90;;